createdAt,value
2017-11-08T00:01:23.704Z,51.93
2017-11-08T00:03:51.272Z,47.57
2017-11-08T00:06:18.779Z,53.90
2017-11-08T00:08:46.315Z,49.50
2017-11-08T00:11:13.826Z,51.20
2017-11-08T00:13:41.338Z,44.73
2017-11-08T00:16:08.820Z,48.63
2017-11-08T00:18:36.341Z,53.30
2017-11-08T00:21:03.967Z,51.70
2017-11-08T00:23:36.401Z,47.40
2017-11-08T00:26:03.888Z,44.70
2017-11-08T00:28:31.392Z,48.13
2017-11-08T00:30:58.909Z,52.97
2017-11-08T00:33:26.446Z,49.33
2017-11-08T00:35:53.960Z,49.17
2017-11-08T00:38:21.510Z,50.73
2017-11-08T00:40:49.019Z,52.60
2017-11-08T00:43:16.518Z,52.53
2017-11-08T00:45:44.011Z,47.87
2017-11-08T00:48:11.528Z,50.40
2017-11-08T00:50:39.010Z,48.67
2017-11-08T00:53:10.447Z,48.13
2017-11-08T00:55:37.961Z,46.80
2017-11-08T00:58:05.448Z,49.43
2017-11-08T01:00:34.822Z,52.73
2017-11-08T01:03:02.363Z,43.30
2017-11-08T01:05:29.861Z,47.23
2017-11-08T01:07:57.345Z,49.87
2017-11-08T01:10:24.883Z,47.93
2017-11-08T01:12:52.375Z,48.47
2017-11-08T01:15:19.880Z,45.60
2017-11-08T01:17:47.412Z,43.63
2017-11-08T01:20:14.907Z,45.73
2017-11-08T01:22:42.424Z,44.30
2017-11-08T01:25:09.921Z,47.00
2017-11-08T01:27:37.413Z,50.70
2017-11-08T01:30:04.917Z,51.30
2017-11-08T01:32:32.441Z,44.03
2017-11-08T01:34:59.934Z,51.00
2017-11-08T01:37:33.118Z,52.80
2017-11-08T01:40:00.620Z,48.63
2017-11-08T01:42:28.887Z,51.93
2017-11-08T01:44:56.408Z,48.90
2017-11-08T01:47:23.886Z,41.23
2017-11-08T01:49:54.168Z,44.37
2017-11-08T01:52:21.792Z,48.00
2017-11-08T01:54:49.286Z,45.07
2017-11-08T01:57:16.834Z,45.37
2017-11-08T01:59:44.382Z,45.67
2017-11-08T02:02:11.887Z,44.07
2017-11-08T02:04:39.373Z,36.30
2017-11-08T02:07:06.878Z,45.13
2017-11-08T02:09:34.401Z,43.97
2017-11-08T02:12:01.891Z,54.27
2017-11-08T02:14:29.402Z,40.10
2017-11-08T02:16:56.911Z,44.90
2017-11-08T02:19:24.426Z,43.00
2017-11-08T02:21:53.100Z,41.20
2017-11-08T02:24:20.626Z,44.60
2017-11-08T02:29:44.556Z,39.57
2017-11-08T02:32:14.886Z,43.57
2017-11-08T02:34:42.405Z,44.97
2017-11-08T02:37:09.918Z,36.63
2017-11-08T02:39:37.425Z,45.30
2017-11-08T02:42:05.785Z,42.10
2017-11-08T02:44:33.274Z,39.87
2017-11-08T02:47:00.785Z,36.33
2017-11-08T02:49:28.304Z,41.23
2017-11-08T02:51:55.802Z,39.50
2017-11-08T02:54:24.697Z,41.57
2017-11-08T02:56:52.196Z,40.30
2017-11-08T02:59:19.703Z,41.30
2017-11-08T03:01:47.209Z,42.50
2017-11-08T03:04:14.702Z,37.10
2017-11-08T03:06:42.189Z,36.60
2017-11-08T03:09:09.710Z,40.07
2017-11-08T03:11:37.221Z,40.67
2017-11-08T03:14:04.718Z,42.73
2017-11-08T03:16:32.190Z,37.37
2017-11-08T03:18:59.666Z,40.40
2017-11-08T03:21:27.131Z,38.33
2017-11-08T03:23:54.609Z,44.53
2017-11-08T03:26:22.095Z,38.60
2017-11-08T03:28:49.563Z,37.77
2017-11-08T03:31:17.083Z,37.87
2017-11-08T03:33:44.553Z,37.27
2017-11-08T03:36:12.028Z,36.53
2017-11-08T03:38:39.524Z,36.00
2017-11-08T03:41:06.988Z,39.13
2017-11-08T03:43:34.443Z,39.70
2017-11-08T03:46:01.972Z,41.63
2017-11-08T03:48:29.430Z,43.37
2017-11-08T03:50:56.926Z,43.00
2017-11-08T03:53:24.418Z,38.30
2017-11-08T03:55:51.895Z,35.57
2017-11-08T03:58:19.370Z,33.30
2017-11-08T04:00:46.880Z,36.13
2017-11-08T04:03:14.430Z,39.10
2017-11-08T04:05:41.893Z,38.60
2017-11-08T04:08:09.449Z,35.73
2017-11-08T04:10:36.900Z,36.27
2017-11-08T04:13:04.368Z,38.73
2017-11-08T04:15:31.837Z,38.37
2017-11-08T04:17:59.329Z,39.10
2017-11-08T04:20:26.793Z,38.90
2017-11-08T04:22:54.345Z,39.00
2017-11-08T04:25:21.826Z,38.70
2017-11-08T04:27:49.319Z,37.23
2017-11-08T04:30:16.840Z,34.57
2017-11-08T04:32:44.315Z,34.50
2017-11-08T04:35:11.847Z,35.03
2017-11-08T04:37:39.325Z,41.13
2017-11-08T04:40:06.784Z,37.57
2017-11-08T04:42:34.242Z,39.33
2017-11-08T04:45:01.733Z,40.20
2017-11-08T04:47:29.199Z,37.67
2017-11-08T04:49:56.663Z,37.07
2017-11-08T04:52:24.161Z,36.10
2017-11-08T04:54:51.681Z,35.53
2017-11-08T04:57:19.248Z,39.27
2017-11-08T04:59:52.617Z,37.23
2017-11-08T05:02:20.144Z,38.27
2017-11-08T05:04:47.620Z,34.77
2017-11-08T05:07:15.109Z,32.10
2017-11-08T05:09:42.566Z,38.20
2017-11-08T05:12:10.047Z,36.40
2017-11-08T05:14:37.532Z,29.43
2017-11-08T05:17:05.001Z,42.20
2017-11-08T05:19:32.514Z,33.20
2017-11-08T05:22:00.005Z,34.97
2017-11-08T05:24:27.476Z,38.37
2017-11-08T05:26:54.966Z,30.50
2017-11-08T05:29:22.441Z,37.70
2017-11-08T05:31:49.949Z,33.93
2017-11-08T05:34:17.415Z,35.43
2017-11-08T05:36:44.923Z,33.70
2017-11-08T05:39:12.399Z,34.80
2017-11-08T05:41:39.861Z,36.27
2017-11-08T05:44:07.381Z,35.47
2017-11-08T05:46:34.875Z,33.10
2017-11-08T05:49:02.346Z,41.47
2017-11-08T05:51:29.826Z,32.60
2017-11-08T05:53:57.453Z,34.10
2017-11-08T05:56:24.953Z,31.90
2017-11-08T05:58:52.610Z,32.60
2017-11-08T06:01:20.074Z,34.60
2017-11-08T06:03:47.540Z,31.77
2017-11-08T06:06:15.125Z,33.53
2017-11-08T06:08:42.602Z,33.00
2017-11-08T06:11:10.071Z,35.40
2017-11-08T06:13:37.557Z,35.10
2017-11-08T06:16:05.024Z,38.33
2017-11-08T06:18:32.497Z,36.77
2017-11-08T06:21:00.015Z,33.60
2017-11-08T06:23:27.518Z,37.23
2017-11-08T06:25:54.990Z,39.87
2017-11-08T06:28:22.468Z,34.47
2017-11-08T06:30:49.932Z,35.70
2017-11-08T06:33:17.403Z,33.50
2017-11-08T06:35:44.888Z,40.37
2017-11-08T06:38:12.367Z,39.30
2017-11-08T06:40:39.848Z,40.70
2017-11-08T06:43:07.359Z,43.70
2017-11-08T06:45:34.844Z,41.40
2017-11-08T06:48:02.316Z,40.57
2017-11-08T06:50:32.290Z,38.40
2017-11-08T06:53:01.716Z,45.10
2017-11-08T06:55:30.001Z,38.37
2017-11-08T06:57:57.500Z,36.53
2017-11-08T07:00:24.983Z,43.47
2017-11-08T07:02:52.459Z,40.97
2017-11-08T07:05:19.943Z,38.13
2017-11-08T07:07:47.449Z,38.77
2017-11-08T07:10:14.904Z,47.00
2017-11-08T07:12:42.405Z,39.13
2017-11-08T07:15:09.888Z,44.63
2017-11-08T07:17:37.345Z,38.17
2017-11-08T07:20:04.846Z,40.40
2017-11-08T07:22:32.329Z,41.93
2017-11-08T07:24:59.802Z,40.97
2017-11-08T07:27:27.302Z,36.97
2017-11-08T07:29:54.787Z,41.53
2017-11-08T07:32:22.251Z,39.47
2017-11-08T07:34:49.743Z,46.37
2017-11-08T07:37:17.210Z,38.07
2017-11-08T07:39:44.687Z,51.53
2017-11-08T07:42:12.170Z,42.77
2017-11-08T07:44:39.724Z,49.47
2017-11-08T07:47:07.214Z,43.57
2017-11-08T07:49:34.728Z,42.13
2017-11-08T07:52:07.517Z,45.17
2017-11-08T07:54:35.084Z,40.00
2017-11-08T07:57:02.595Z,45.23
2017-11-08T07:59:35.646Z,41.80
2017-11-08T08:02:03.114Z,36.07
2017-11-08T08:04:30.601Z,42.57
2017-11-08T08:06:58.169Z,35.97
2017-11-08T08:09:25.678Z,36.27
2017-11-08T08:11:53.160Z,40.97
2017-11-08T08:14:20.644Z,36.03
2017-11-08T08:16:48.125Z,42.10
2017-11-08T08:19:30.078Z,41.80
2017-11-08T08:21:57.560Z,44.83
2017-11-08T08:24:25.050Z,40.33
2017-11-08T08:26:52.602Z,42.90
2017-11-08T08:29:22.032Z,39.93
2017-11-08T08:31:49.534Z,40.30
2017-11-08T08:34:17.043Z,43.93
2017-11-08T08:36:44.529Z,40.50
2017-11-08T08:39:12.010Z,40.53
2017-11-08T08:41:39.497Z,41.57
2017-11-08T08:44:06.974Z,44.27
2017-11-08T08:46:34.449Z,50.60
2017-11-08T08:49:01.939Z,45.00
2017-11-08T08:51:29.459Z,48.00
2017-11-08T08:53:56.945Z,41.50
2017-11-08T08:56:24.427Z,43.83
2017-11-08T08:58:51.890Z,51.00
2017-11-08T09:01:19.381Z,55.17
2017-11-08T09:03:46.889Z,51.07
2017-11-08T09:06:14.357Z,48.40
2017-11-08T09:08:41.848Z,49.33
2017-11-08T09:13:59.639Z,51.53
2017-11-08T09:16:27.182Z,52.97
2017-11-08T09:18:54.703Z,61.53
2017-11-08T09:21:22.279Z,52.93
2017-11-08T09:23:49.814Z,54.97
2017-11-08T09:26:17.357Z,44.80
2017-11-08T09:28:44.886Z,48.93
2017-11-08T09:31:17.883Z,42.67
2017-11-08T09:33:45.405Z,42.97
2017-11-08T09:36:14.850Z,44.97
2017-11-08T09:38:42.371Z,47.77
2017-11-08T09:41:09.959Z,49.37
2017-11-08T09:43:37.487Z,47.60
2017-11-08T09:46:05.011Z,47.17
2017-11-08T09:48:33.235Z,45.90
2017-11-08T09:51:00.738Z,46.47
2017-11-08T09:53:28.267Z,51.80
2017-11-08T09:55:58.284Z,42.10
2017-11-08T09:58:25.830Z,43.53
2017-11-08T10:00:57.189Z,43.87
2017-11-08T10:05:58.457Z,47.33
2017-11-08T10:08:26.025Z,47.63
2017-11-08T10:10:59.099Z,52.43
2017-11-08T10:13:27.515Z,39.23
2017-11-08T10:15:55.042Z,45.33
2017-11-08T10:18:22.576Z,47.23
2017-11-08T10:20:50.081Z,47.20
2017-11-08T10:23:20.527Z,45.10
2017-11-08T10:25:48.144Z,48.03
2017-11-08T10:28:15.651Z,48.00
2017-11-08T10:30:43.162Z,42.67
2017-11-08T10:33:10.693Z,47.10
2017-11-08T10:35:38.181Z,51.33
2017-11-08T10:38:08.378Z,39.50
2017-11-08T10:40:35.929Z,43.47
2017-11-08T10:43:03.441Z,48.47
2017-11-08T10:45:30.908Z,41.73
2017-11-08T10:47:58.387Z,45.70
2017-11-08T10:50:25.886Z,47.60
2017-11-08T10:55:51.725Z,44.27
2017-11-08T10:58:20.236Z,50.53
2017-11-08T11:00:50.203Z,45.07
2017-11-08T11:03:17.681Z,47.83
2017-11-08T11:05:45.238Z,46.00
2017-11-08T11:08:14.131Z,47.60
2017-11-08T11:10:41.705Z,45.70
2017-11-08T11:13:09.258Z,45.87
2017-11-08T11:15:36.753Z,40.10
2017-11-08T11:18:04.241Z,46.80
2017-11-08T11:20:31.749Z,43.70
2017-11-08T11:22:59.221Z,42.70
2017-11-08T11:25:26.706Z,38.17
2017-11-08T11:27:54.190Z,54.93
2017-11-08T11:30:26.512Z,44.43
2017-11-08T11:32:54.013Z,41.60
2017-11-08T11:35:21.529Z,47.10
2017-11-08T11:37:49.026Z,38.70
2017-11-08T11:40:16.515Z,46.43
2017-11-08T11:42:44.081Z,48.43
2017-11-08T11:45:11.556Z,46.50
2017-11-08T11:47:39.091Z,47.57
2017-11-08T11:50:06.610Z,48.80
2017-11-08T11:52:34.108Z,43.60
2017-11-08T11:55:01.594Z,44.37
2017-11-08T11:57:29.094Z,47.10
2017-11-08T11:59:56.581Z,45.57
2017-11-08T12:02:24.103Z,43.80
2017-11-08T12:04:51.648Z,41.80
2017-11-08T12:07:19.152Z,42.97
2017-11-08T12:09:46.622Z,46.00
2017-11-08T12:12:14.152Z,39.50
2017-11-08T12:14:41.668Z,47.50
2017-11-08T12:17:09.145Z,44.53
2017-11-08T12:19:38.481Z,39.20
2017-11-08T12:22:05.972Z,46.10
2017-11-08T12:24:33.489Z,39.33
2017-11-08T12:27:05.772Z,43.53
2017-11-08T12:29:33.356Z,43.90
2017-11-08T12:32:00.897Z,47.73
2017-11-08T12:34:28.388Z,39.23
2017-11-08T12:36:55.935Z,43.00
2017-11-08T12:39:23.406Z,42.87
2017-11-08T12:41:50.916Z,42.10
2017-11-08T12:44:24.014Z,50.47
2017-11-08T12:46:51.521Z,46.10
2017-11-08T12:49:18.988Z,44.43
2017-11-08T12:51:46.462Z,45.80
2017-11-08T12:54:13.971Z,53.73
2017-11-08T12:56:41.450Z,69.53
2017-11-08T12:59:08.943Z,48.20
2017-11-08T13:01:36.481Z,52.17
2017-11-08T13:04:06.668Z,48.50
2017-11-08T13:06:36.902Z,46.33
2017-11-08T13:09:04.427Z,56.67
2017-11-08T13:11:35.855Z,54.40
2017-11-08T13:14:03.384Z,54.93
2017-11-08T13:16:30.904Z,43.03
2017-11-08T13:18:58.411Z,48.03
2017-11-08T13:21:25.963Z,50.57
2017-11-08T13:23:53.445Z,51.47
2017-11-08T13:26:20.936Z,58.67
2017-11-08T13:28:48.468Z,52.60
2017-11-08T13:31:15.961Z,48.37
2017-11-08T13:33:43.476Z,46.77
2017-11-08T13:36:10.964Z,53.93
2017-11-08T13:38:38.475Z,49.67
2017-11-08T13:41:05.967Z,53.97
2017-11-08T13:43:33.524Z,53.70
2017-11-08T13:46:01.026Z,50.47
2017-11-08T13:48:28.512Z,50.00
2017-11-08T13:50:56.499Z,52.33
2017-11-08T13:53:23.990Z,51.53
2017-11-08T13:55:51.499Z,49.37
2017-11-08T13:58:19.090Z,52.67
2017-11-08T14:00:46.596Z,56.93
2017-11-08T14:03:14.268Z,54.10
2017-11-08T14:05:41.781Z,51.13
2017-11-08T14:08:09.252Z,52.90
2017-11-08T14:10:36.734Z,54.00
2017-11-08T14:13:04.227Z,49.37
2017-11-08T14:15:31.692Z,54.80
2017-11-08T14:17:59.173Z,60.90
2017-11-08T14:20:26.657Z,56.37
2017-11-08T14:22:54.187Z,54.00
2017-11-08T14:25:21.678Z,53.40
2017-11-08T14:27:49.168Z,60.47
2017-11-08T14:30:16.688Z,60.53
2017-11-08T14:32:44.155Z,51.40
2017-11-08T14:35:11.732Z,48.80
2017-11-08T14:37:39.983Z,52.53
2017-11-08T14:40:07.466Z,56.93
2017-11-08T14:42:39.533Z,52.07
2017-11-08T14:45:07.017Z,47.53
2017-11-08T14:47:34.531Z,47.60
2017-11-08T14:50:02.027Z,44.70
2017-11-08T14:52:29.504Z,51.70
2017-11-08T14:54:57.003Z,54.33
2017-11-08T14:57:24.525Z,50.83
2017-11-08T14:59:52.020Z,53.87
2017-11-08T15:02:19.492Z,57.33
2017-11-08T15:04:46.979Z,51.40
2017-11-08T15:07:14.485Z,51.70
2017-11-08T15:09:42.007Z,50.97
2017-11-08T15:12:10.292Z,54.50
2017-11-08T15:14:42.629Z,58.53
2017-11-08T15:17:10.139Z,47.60
2017-11-08T15:19:43.158Z,60.93
2017-11-08T15:22:10.656Z,58.27
2017-11-08T15:24:38.135Z,56.57
2017-11-08T15:27:05.583Z,58.00
2017-11-08T15:29:33.052Z,56.00
2017-11-08T15:32:00.546Z,55.50
2017-11-08T15:34:33.448Z,59.47
2017-11-08T15:37:00.931Z,60.70
2017-11-08T15:39:28.414Z,67.20
2017-11-08T15:41:55.918Z,69.70
2017-11-08T15:44:23.476Z,62.17
2017-11-08T15:46:54.856Z,70.60
2017-11-08T15:49:22.374Z,64.73
2017-11-08T15:51:49.852Z,61.00
2017-11-08T15:54:17.318Z,52.87
2017-11-08T15:56:44.787Z,59.00
2017-11-08T15:59:12.246Z,52.90
2017-11-08T16:01:41.654Z,71.10
2017-11-08T16:04:12.050Z,53.37
2017-11-08T16:06:39.565Z,54.77
2017-11-08T16:09:10.773Z,51.17
2017-11-08T16:11:38.254Z,60.00
2017-11-08T16:14:05.748Z,50.10
2017-11-08T16:16:33.233Z,48.70
2017-11-08T16:19:02.677Z,49.10
2017-11-08T16:21:38.709Z,53.80
2017-11-08T16:24:06.211Z,57.17
2017-11-08T16:26:33.675Z,53.70
2017-11-08T16:29:01.152Z,50.77
2017-11-08T16:31:28.675Z,62.10
2017-11-08T16:33:56.149Z,59.40
2017-11-08T16:36:23.629Z,58.70
2017-11-08T16:38:51.133Z,59.73
2017-11-08T16:41:18.604Z,56.27
2017-11-08T16:43:46.083Z,61.27
2017-11-08T16:46:13.605Z,60.90
2017-11-08T16:48:41.082Z,72.90
2017-11-08T16:51:08.582Z,58.73
2017-11-08T16:53:36.081Z,53.93
2017-11-08T16:56:03.571Z,60.97
2017-11-08T16:58:31.056Z,63.17
2017-11-08T17:00:58.575Z,73.03
2017-11-08T17:03:26.068Z,60.37
2017-11-08T17:05:53.581Z,53.77
2017-11-08T17:08:21.253Z,62.67
2017-11-08T17:10:48.729Z,53.17
2017-11-08T17:13:16.194Z,54.50
2017-11-08T17:15:43.670Z,57.10
2017-11-08T17:18:11.173Z,61.00
2017-11-08T17:20:38.762Z,58.23
2017-11-08T17:23:06.262Z,60.33
2017-11-08T17:25:33.726Z,59.70
2017-11-08T17:28:01.191Z,60.57
2017-11-08T17:30:28.677Z,59.27
2017-11-08T17:32:56.143Z,70.00
2017-11-08T17:35:23.865Z,63.87
2017-11-08T17:37:51.367Z,74.60
2017-11-08T17:40:18.856Z,65.03
2017-11-08T17:42:46.356Z,64.33
2017-11-08T17:45:13.850Z,53.90
2017-11-08T17:47:41.326Z,58.60
2017-11-08T17:50:08.800Z,71.80
2017-11-08T17:52:36.952Z,66.07
2017-11-08T17:55:04.439Z,62.83
2017-11-08T17:57:32.029Z,66.53
2017-11-08T17:59:59.698Z,63.13
2017-11-08T18:02:28.328Z,64.00
2017-11-08T18:04:55.913Z,69.60
2017-11-08T18:07:27.871Z,57.37
2017-11-08T18:09:56.302Z,73.30
2017-11-08T18:12:23.851Z,61.87
2017-11-08T18:14:51.482Z,61.10
2017-11-08T18:17:19.007Z,65.63
2017-11-08T18:19:46.539Z,65.30
2017-11-08T18:22:14.040Z,55.23
2017-11-08T18:24:41.913Z,67.80
2017-11-08T18:27:09.392Z,77.03
2017-11-08T18:29:36.902Z,73.30
2017-11-08T18:32:04.431Z,67.83
2017-11-08T18:34:32.018Z,67.60
2017-11-08T18:36:59.503Z,71.33
2017-11-08T18:39:29.275Z,70.17
2017-11-08T18:41:56.785Z,61.20
2017-11-08T18:44:26.101Z,74.00
2017-11-08T18:46:53.682Z,73.83
2017-11-08T18:49:21.191Z,78.87
2017-11-08T18:51:48.694Z,80.33
2017-11-08T18:54:16.181Z,67.63
2017-11-08T18:56:43.719Z,77.33
2017-11-08T18:59:11.281Z,72.90
2017-11-08T19:01:38.786Z,73.37
2017-11-08T19:04:06.273Z,74.90
2017-11-08T19:06:33.770Z,83.07
2017-11-08T19:09:01.244Z,79.70
2017-11-08T19:11:28.757Z,83.83
2017-11-08T19:13:56.284Z,86.37
2017-11-08T19:16:23.796Z,82.47
2017-11-08T19:18:51.280Z,84.37
2017-11-08T19:21:18.865Z,88.03
2017-11-08T19:23:46.359Z,92.23
2017-11-08T19:26:13.843Z,89.17
2017-11-08T19:28:41.538Z,84.77
2017-11-08T19:31:09.139Z,94.77
2017-11-08T19:33:36.615Z,87.03
2017-11-08T19:36:04.169Z,108.20
2017-11-08T19:38:31.659Z,94.00
2017-11-08T19:41:00.416Z,103.03
2017-11-08T19:43:27.964Z,142.43
2017-11-08T19:45:55.477Z,101.53
2017-11-08T19:48:22.952Z,90.97
2017-11-08T19:50:50.445Z,102.93
2017-11-08T19:53:17.942Z,92.30
2017-11-08T19:55:45.431Z,101.33
2017-11-08T19:58:12.994Z,103.90
2017-11-08T20:00:40.805Z,86.03
2017-11-08T20:03:08.335Z,91.53
2017-11-08T20:05:35.876Z,87.10
2017-11-08T20:08:03.398Z,92.73
2017-11-08T20:10:30.918Z,100.63
2017-11-08T20:12:58.501Z,113.50
2017-11-08T20:15:27.751Z,99.57
2017-11-08T20:17:55.239Z,96.90
2017-11-08T20:20:22.786Z,109.83
2017-11-08T20:22:51.125Z,96.43
2017-11-08T20:25:18.801Z,88.60
2017-11-08T20:27:46.383Z,90.30
2017-11-08T20:30:13.868Z,78.03
2017-11-08T20:32:41.751Z,93.37
2017-11-08T20:35:09.325Z,84.90
2017-11-08T20:37:36.860Z,86.80
2017-11-08T20:40:04.325Z,85.87
2017-11-08T20:42:31.806Z,90.63
2017-11-08T20:44:59.278Z,81.77
2017-11-08T20:47:26.745Z,87.40
2017-11-08T20:49:54.233Z,83.93
2017-11-08T20:52:21.778Z,76.77
2017-11-08T20:54:49.234Z,94.00
2017-11-08T20:57:16.734Z,84.77
2017-11-08T20:59:44.281Z,90.93
2017-11-08T21:02:11.750Z,99.73
2017-11-08T21:04:39.261Z,91.80
2017-11-08T21:07:06.770Z,107.93
2017-11-08T21:09:34.256Z,84.57
2017-11-08T21:12:01.868Z,95.73
2017-11-08T21:14:29.360Z,96.33
2017-11-08T21:16:59.800Z,82.90
2017-11-08T21:19:27.411Z,92.93
2017-11-08T21:21:54.903Z,88.90
2017-11-08T21:24:22.548Z,82.33
2017-11-08T21:26:50.084Z,82.60
2017-11-08T21:29:17.605Z,94.03
2017-11-08T21:31:45.136Z,96.13
2017-11-08T21:34:12.608Z,92.43
2017-11-08T21:36:41.007Z,83.37
2017-11-08T21:39:08.516Z,92.10
2017-11-08T21:41:36.105Z,84.43
2017-11-08T21:44:03.570Z,92.27
2017-11-08T21:46:32.826Z,77.17
2017-11-08T21:49:00.304Z,99.90
2017-11-08T21:51:30.271Z,91.60
2017-11-08T21:53:58.633Z,95.53
2017-11-08T21:56:27.414Z,95.67
2017-11-08T21:58:56.880Z,90.80
2017-11-08T22:01:24.383Z,87.53
2017-11-08T22:03:51.859Z,97.53
2017-11-08T22:06:19.324Z,91.57
2017-11-08T22:08:46.813Z,103.20
2017-11-08T22:11:14.330Z,114.27
2017-11-08T22:13:45.795Z,118.90
2017-11-08T22:16:13.300Z,102.23
2017-11-08T22:18:40.807Z,120.47
2017-11-08T22:21:08.299Z,101.53
2017-11-08T22:23:35.842Z,106.37
2017-11-08T22:26:04.080Z,105.10
2017-11-08T22:28:35.873Z,81.70
2017-11-08T22:31:03.970Z,67.40
2017-11-08T22:33:31.433Z,70.33
2017-11-08T22:35:58.951Z,58.73
2017-11-08T22:38:27.594Z,66.17
2017-11-08T22:40:57.956Z,61.00
2017-11-08T22:43:25.979Z,65.77
2017-11-08T22:45:53.478Z,61.00
2017-11-08T22:48:20.946Z,58.53
2017-11-08T22:50:48.430Z,67.57
2017-11-08T22:53:15.903Z,56.20
2017-11-08T22:55:43.374Z,56.00
2017-11-08T22:58:10.838Z,60.30
2017-11-08T23:00:41.231Z,62.97
2017-11-08T23:03:08.690Z,68.10
2017-11-08T23:05:36.160Z,65.73
2017-11-08T23:08:03.675Z,72.83
2017-11-08T23:10:31.155Z,74.17
2017-11-08T23:12:58.653Z,65.77
2017-11-08T23:15:26.142Z,70.47
2017-11-08T23:17:53.598Z,67.60
2017-11-08T23:20:21.807Z,76.13
2017-11-08T23:22:50.696Z,83.77
2017-11-08T23:25:18.929Z,71.10
2017-11-08T23:27:48.543Z,61.97
2017-11-08T23:30:17.258Z,69.53
2017-11-08T23:32:48.151Z,74.37
2017-11-08T23:35:18.287Z,68.63
2017-11-08T23:37:49.354Z,69.27
2017-11-08T23:40:17.003Z,70.67
2017-11-08T23:42:45.578Z,56.73
2017-11-08T23:45:13.051Z,75.00
2017-11-08T23:47:40.603Z,64.13
2017-11-08T23:50:08.090Z,56.73
2017-11-08T23:52:35.567Z,63.90
2017-11-08T23:55:03.033Z,54.77
2017-11-08T23:57:30.525Z,59.73
